Aroya, Colorado
Current Conditions -  °F | °C
As of 7:55 AM on Friday 24 Oct 2014 (Local Time) from KLIC Reporting Station
Clear Clear  
Wind Chill:   Ceiling: Unl
Heat Index:   Visibility: 10mi
Dew Point:   Wind: 3mph
Humidity: 71%   Direction: 350°N
Pressure: 30.19"   Gusts: NA
Location:  38.8543°N, 103.125°W
Report Text: KLIC 241355Z AUTO 35003KT 10SM CLR 07/02 A3019 RMK AO2 SLP194 T00670017
Loading
Personal Weather Stations






























Interactive Weather Map
Tropical Storm Tracking
New forecast layout! Learn more

10-Day Weather Forecast

Advertisements
Track Severe Weather on mobile